sensor_id;sensor_type;location;lat;lon;timestamp;P1;durP1;ratioP1;P2;durP2;ratioP2
29422;SDS011;16399;51.686;8.684;2023-08-17T00:02:11;8.00;;;3.20;;
29422;SDS011;16399;51.686;8.684;2023-08-17T00:05:14;7.45;;;3.80;;
29422;SDS011;16399;51.686;8.684;2023-08-17T00:08:16;8.43;;;3.67;;
29422;SDS011;16399;51.686;8.684;2023-08-17T00:11:18;11.45;;;3.55;;
29422;SDS011;16399;51.686;8.684;2023-08-17T00:14:21;8.23;;;3.77;;
29422;SDS011;16399;51.686;8.684;2023-08-17T00:17:23;6.28;;;3.58;;
29422;SDS011;16399;51.686;8.684;2023-08-17T00:20:25;9.68;;;4.17;;
29422;SDS011;16399;51.686;8.684;2023-08-17T00:23:28;6.28;;;3.60;;
29422;SDS011;16399;51.686;8.684;2023-08-17T00:26:30;6.55;;;3.50;;
29422;SDS011;16399;51.686;8.684;2023-08-17T00:29:32;10.45;;;4.20;;
29422;SDS011;16399;51.686;8.684;2023-08-17T00:32:36;6.50;;;4.03;;
29422;SDS011;16399;51.686;8.684;2023-08-17T00:35:38;9.40;;;3.65;;
29422;SDS011;16399;51.686;8.684;2023-08-17T00:38:40;8.38;;;4.17;;
29422;SDS011;16399;51.686;8.684;2023-08-17T00:41:42;10.03;;;3.70;;
29422;SDS011;16399;51.686;8.684;2023-08-17T00:44:45;6.05;;;3.58;;
29422;SDS011;16399;51.686;8.684;2023-08-17T00:47:47;7.50;;;3.90;;
29422;SDS011;16399;51.686;8.684;2023-08-17T00:50:50;7.72;;;4.10;;
29422;SDS011;16399;51.686;8.684;2023-08-17T00:53:54;7.30;;;4.35;;
29422;SDS011;16399;51.686;8.684;2023-08-17T00:56:59;7.65;;;3.80;;
29422;SDS011;16399;51.686;8.684;2023-08-17T01:00:01;6.60;;;3.77;;
29422;SDS011;16399;51.686;8.684;2023-08-17T01:03:05;9.73;;;4.23;;
29422;SDS011;16399;51.686;8.684;2023-08-17T01:06:08;6.40;;;3.80;;
29422;SDS011;16399;51.686;8.684;2023-08-17T01:09:11;9.48;;;4.17;;
29422;SDS011;16399;51.686;8.684;2023-08-17T01:12:24;6.03;;;4.00;;
29422;SDS011;16399;51.686;8.684;2023-08-17T01:15:31;6.93;;;3.97;;
29422;SDS011;16399;51.686;8.684;2023-08-17T01:18:36;7.17;;;4.42;;
29422;SDS011;16399;51.686;8.684;2023-08-17T01:21:47;9.68;;;4.53;;
29422;SDS011;16399;51.686;8.684;2023-08-17T01:24:45;8.65;;;4.62;;
29422;SDS011;16399;51.686;8.684;2023-08-17T01:31:25;6.87;;;3.47;;
29422;SDS011;16399;51.686;8.684;2023-08-17T01:34:31;8.60;;;4.10;;
29422;SDS011;16399;51.686;8.684;2023-08-17T01:37:35;8.50;;;3.95;;
29422;SDS011;16399;51.686;8.684;2023-08-17T01:40:41;11.43;;;4.10;;
29422;SDS011;16399;51.686;8.684;2023-08-17T01:43:44;7.87;;;3.80;;
29422;SDS011;16399;51.686;8.684;2023-08-17T01:46:48;8.40;;;4.03;;
29422;SDS011;16399;51.686;8.684;2023-08-17T01:49:50;6.05;;;3.42;;
29422;SDS011;16399;51.686;8.684;2023-08-17T01:52:52;8.73;;;4.28;;
29422;SDS011;16399;51.686;8.684;2023-08-17T01:55:55;6.85;;;3.87;;
29422;SDS011;16399;51.686;8.684;2023-08-17T01:58:57;8.05;;;3.90;;
29422;SDS011;16399;51.686;8.684;2023-08-17T02:01:59;8.73;;;4.55;;
29422;SDS011;16399;51.686;8.684;2023-08-17T02:05:01;7.75;;;4.20;;
29422;SDS011;16399;51.686;8.684;2023-08-17T02:08:04;10.50;;;3.90;;
29422;SDS011;16399;51.686;8.684;2023-08-17T02:11:06;9.38;;;4.03;;
29422;SDS011;16399;51.686;8.684;2023-08-17T02:14:10;7.40;;;4.13;;
29422;SDS011;16399;51.686;8.684;2023-08-17T02:17:12;5.30;;;3.75;;
29422;SDS011;16399;51.686;8.684;2023-08-17T02:20:17;8.55;;;4.03;;
29422;SDS011;16399;51.686;8.684;2023-08-17T02:23:19;10.70;;;4.10;;
29422;SDS011;16399;51.686;8.684;2023-08-17T02:26:21;6.08;;;3.77;;
29422;SDS011;16399;51.686;8.684;2023-08-17T02:29:23;8.73;;;3.98;;
29422;SDS011;16399;51.686;8.684;2023-08-17T02:32:26;9.25;;;3.55;;
29422;SDS011;16399;51.686;8.684;2023-08-17T02:35:28;7.83;;;3.98;;
29422;SDS011;16399;51.686;8.684;2023-08-17T02:38:31;6.75;;;3.80;;
29422;SDS011;16399;51.686;8.684;2023-08-17T02:41:33;7.45;;;3.27;;
29422;SDS011;16399;51.686;8.684;2023-08-17T02:44:35;8.08;;;4.15;;
29422;SDS011;16399;51.686;8.684;2023-08-17T02:47:37;8.50;;;3.50;;
29422;SDS011;16399;51.686;8.684;2023-08-17T02:50:40;8.38;;;3.40;;
29422;SDS011;16399;51.686;8.684;2023-08-17T02:53:42;7.65;;;3.20;;
29422;SDS011;16399;51.686;8.684;2023-08-17T02:56:44;6.37;;;3.83;;
29422;SDS011;16399;51.686;8.684;2023-08-17T02:59:47;7.05;;;3.33;;
29422;SDS011;16399;51.686;8.684;2023-08-17T03:02:49;10.23;;;3.70;;
29422;SDS011;16399;51.686;8.684;2023-08-17T03:05:51;7.95;;;3.45;;
29422;SDS011;16399;51.686;8.684;2023-08-17T03:08:53;5.33;;;3.10;;
29422;SDS011;16399;51.686;8.684;2023-08-17T03:11:56;7.72;;;3.00;;
29422;SDS011;16399;51.686;8.684;2023-08-17T03:14:58;6.20;;;3.17;;
29422;SDS011;16399;51.686;8.684;2023-08-17T03:18:00;7.65;;;3.50;;
29422;SDS011;16399;51.686;8.684;2023-08-17T03:21:03;7.28;;;3.30;;
29422;SDS011;16399;51.686;8.684;2023-08-17T03:24:05;5.15;;;3.33;;
29422;SDS011;16399;51.686;8.684;2023-08-17T03:27:08;7.37;;;4.25;;
29422;SDS011;16399;51.686;8.684;2023-08-17T03:30:10;11.10;;;3.70;;
29422;SDS011;16399;51.686;8.684;2023-08-17T03:33:12;6.97;;;3.58;;
29422;SDS011;16399;51.686;8.684;2023-08-17T03:36:15;7.40;;;3.37;;
29422;SDS011;16399;51.686;8.684;2023-08-17T03:39:17;5.72;;;3.55;;
29422;SDS011;16399;51.686;8.684;2023-08-17T03:42:19;7.25;;;3.52;;
29422;SDS011;16399;51.686;8.684;2023-08-17T03:45:22;10.72;;;3.77;;
29422;SDS011;16399;51.686;8.684;2023-08-17T03:48:24;9.95;;;3.90;;
29422;SDS011;16399;51.686;8.684;2023-08-17T03:51:26;6.55;;;3.60;;
29422;SDS011;16399;51.686;8.684;2023-08-17T03:54:28;8.53;;;3.55;;
29422;SDS011;16399;51.686;8.684;2023-08-17T03:57:31;9.00;;;3.58;;
29422;SDS011;16399;51.686;8.684;2023-08-17T04:00:33;5.30;;;3.72;;
29422;SDS011;16399;51.686;8.684;2023-08-17T04:03:35;6.87;;;3.70;;
29422;SDS011;16399;51.686;8.684;2023-08-17T04:06:38;9.28;;;4.22;;
29422;SDS011;16399;51.686;8.684;2023-08-17T04:09:43;12.37;;;4.20;;
29422;SDS011;16399;51.686;8.684;2023-08-17T04:12:45;12.00;;;4.22;;
29422;SDS011;16399;51.686;8.684;2023-08-17T04:15:47;7.17;;;4.12;;
29422;SDS011;16399;51.686;8.684;2023-08-17T04:18:50;9.18;;;3.98;;
29422;SDS011;16399;51.686;8.684;2023-08-17T04:21:52;8.68;;;4.17;;
29422;SDS011;16399;51.686;8.684;2023-08-17T04:24:55;13.22;;;4.10;;
29422;SDS011;16399;51.686;8.684;2023-08-17T04:27:58;11.28;;;4.40;;
29422;SDS011;16399;51.686;8.684;2023-08-17T04:31:00;13.18;;;4.50;;
29422;SDS011;16399;51.686;8.684;2023-08-17T04:34:02;7.70;;;4.00;;
29422;SDS011;16399;51.686;8.684;2023-08-17T04:37:05;8.05;;;4.05;;
29422;SDS011;16399;51.686;8.684;2023-08-17T04:40:07;8.50;;;4.60;;
29422;SDS011;16399;51.686;8.684;2023-08-17T04:43:10;6.85;;;4.28;;
29422;SDS011;16399;51.686;8.684;2023-08-17T04:46:13;10.88;;;4.65;;
29422;SDS011;16399;51.686;8.684;2023-08-17T04:49:15;10.63;;;5.00;;
29422;SDS011;16399;51.686;8.684;2023-08-17T04:52:17;10.43;;;5.35;;
29422;SDS011;16399;51.686;8.684;2023-08-17T04:55:20;9.10;;;4.53;;
29422;SDS011;16399;51.686;8.684;2023-08-17T04:58:22;6.90;;;4.28;;
29422;SDS011;16399;51.686;8.684;2023-08-17T05:01:24;9.60;;;4.83;;
29422;SDS011;16399;51.686;8.684;2023-08-17T05:04:27;6.95;;;4.33;;
29422;SDS011;16399;51.686;8.684;2023-08-17T05:10:33;7.30;;;4.53;;
29422;SDS011;16399;51.686;8.684;2023-08-17T05:13:35;7.92;;;5.03;;
29422;SDS011;16399;51.686;8.684;2023-08-17T05:16:37;7.85;;;4.60;;
29422;SDS011;16399;51.686;8.684;2023-08-17T05:19:40;11.63;;;5.03;;
29422;SDS011;16399;51.686;8.684;2023-08-17T05:22:42;7.55;;;3.98;;
29422;SDS011;16399;51.686;8.684;2023-08-17T05:25:47;7.83;;;4.70;;
29422;SDS011;16399;51.686;8.684;2023-08-17T05:28:49;8.83;;;4.75;;
29422;SDS011;16399;51.686;8.684;2023-08-17T05:31:52;8.08;;;4.95;;
29422;SDS011;16399;51.686;8.684;2023-08-17T05:34:55;9.68;;;4.65;;
29422;SDS011;16399;51.686;8.684;2023-08-17T05:37:58;6.60;;;5.00;;
29422;SDS011;16399;51.686;8.684;2023-08-17T05:41:00;7.37;;;5.08;;
29422;SDS011;16399;51.686;8.684;2023-08-17T05:44:02;6.60;;;5.08;;
29422;SDS011;16399;51.686;8.684;2023-08-17T05:47:07;7.78;;;5.70;;
29422;SDS011;16399;51.686;8.684;2023-08-17T05:50:09;7.95;;;5.70;;
29422;SDS011;16399;51.686;8.684;2023-08-17T05:53:11;7.10;;;5.45;;
29422;SDS011;16399;51.686;8.684;2023-08-17T05:56:13;10.05;;;5.67;;
29422;SDS011;16399;51.686;8.684;2023-08-17T05:59:16;8.58;;;5.28;;
29422;SDS011;16399;51.686;8.684;2023-08-17T06:02:18;9.95;;;5.22;;
29422;SDS011;16399;51.686;8.684;2023-08-17T06:05:22;8.35;;;5.67;;
29422;SDS011;16399;51.686;8.684;2023-08-17T06:08:26;10.38;;;5.53;;
29422;SDS011;16399;51.686;8.684;2023-08-17T06:11:29;8.30;;;5.60;;
29422;SDS011;16399;51.686;8.684;2023-08-17T06:14:32;10.75;;;6.00;;
29422;SDS011;16399;51.686;8.684;2023-08-17T06:17:34;9.48;;;5.95;;
29422;SDS011;16399;51.686;8.684;2023-08-17T06:20:37;10.70;;;7.50;;
29422;SDS011;16399;51.686;8.684;2023-08-17T06:23:39;10.75;;;6.25;;
29422;SDS011;16399;51.686;8.684;2023-08-17T06:26:41;10.25;;;6.50;;
29422;SDS011;16399;51.686;8.684;2023-08-17T06:29:44;16.52;;;8.20;;
29422;SDS011;16399;51.686;8.684;2023-08-17T06:32:47;10.03;;;7.75;;
29422;SDS011;16399;51.686;8.684;2023-08-17T06:35:49;12.98;;;7.53;;
29422;SDS011;16399;51.686;8.684;2023-08-17T06:38:51;15.53;;;7.67;;
29422;SDS011;16399;51.686;8.684;2023-08-17T06:41:54;12.65;;;7.50;;
29422;SDS011;16399;51.686;8.684;2023-08-17T06:44:56;13.90;;;8.28;;
29422;SDS011;16399;51.686;8.684;2023-08-17T06:47:59;13.20;;;8.50;;
29422;SDS011;16399;51.686;8.684;2023-08-17T06:51:01;13.58;;;8.85;;
29422;SDS011;16399;51.686;8.684;2023-08-17T06:54:07;14.00;;;8.53;;
29422;SDS011;16399;51.686;8.684;2023-08-17T07:00:11;13.35;;;7.80;;
29422;SDS011;16399;51.686;8.684;2023-08-17T07:03:14;14.35;;;8.40;;
29422;SDS011;16399;51.686;8.684;2023-08-17T07:06:16;19.77;;;8.60;;
29422;SDS011;16399;51.686;8.684;2023-08-17T07:09:19;14.00;;;9.60;;
29422;SDS011;16399;51.686;8.684;2023-08-17T07:12:22;15.25;;;9.45;;
29422;SDS011;16399;51.686;8.684;2023-08-17T07:15:24;16.42;;;9.75;;
29422;SDS011;16399;51.686;8.684;2023-08-17T07:18:27;18.77;;;9.75;;
29422;SDS011;16399;51.686;8.684;2023-08-17T07:21:29;19.82;;;10.53;;
29422;SDS011;16399;51.686;8.684;2023-08-17T07:24:31;19.62;;;10.65;;
29422;SDS011;16399;51.686;8.684;2023-08-17T07:27:34;15.55;;;9.90;;
29422;SDS011;16399;51.686;8.684;2023-08-17T07:30:36;17.77;;;9.90;;
29422;SDS011;16399;51.686;8.684;2023-08-17T07:33:38;14.58;;;8.30;;
29422;SDS011;16399;51.686;8.684;2023-08-17T07:36:41;15.23;;;9.03;;
29422;SDS011;16399;51.686;8.684;2023-08-17T07:39:43;19.32;;;10.03;;
29422;SDS011;16399;51.686;8.684;2023-08-17T07:42:45;21.07;;;10.65;;
29422;SDS011;16399;51.686;8.684;2023-08-17T07:45:59;16.45;;;9.58;;
29422;SDS011;16399;51.686;8.684;2023-08-17T07:48:58;15.45;;;8.63;;
29422;SDS011;16399;51.686;8.684;2023-08-17T07:52:00;15.75;;;7.67;;
29422;SDS011;16399;51.686;8.684;2023-08-17T07:55:03;12.10;;;6.40;;
29422;SDS011;16399;51.686;8.684;2023-08-17T07:58:05;10.93;;;5.95;;
29422;SDS011;16399;51.686;8.684;2023-08-17T08:01:08;12.23;;;6.92;;
29422;SDS011;16399;51.686;8.684;2023-08-17T08:04:10;10.78;;;6.47;;
29422;SDS011;16399;51.686;8.684;2023-08-17T08:07:13;12.73;;;6.17;;
29422;SDS011;16399;51.686;8.684;2023-08-17T08:10:15;10.78;;;6.60;;
29422;SDS011;16399;51.686;8.684;2023-08-17T08:13:17;9.15;;;6.03;;
29422;SDS011;16399;51.686;8.684;2023-08-17T08:16:19;9.03;;;5.50;;
29422;SDS011;16399;51.686;8.684;2023-08-17T08:19:22;12.40;;;6.40;;
29422;SDS011;16399;51.686;8.684;2023-08-17T08:22:24;9.40;;;6.20;;
29422;SDS011;16399;51.686;8.684;2023-08-17T08:25:26;8.18;;;5.37;;
29422;SDS011;16399;51.686;8.684;2023-08-17T08:28:29;11.70;;;5.33;;
29422;SDS011;16399;51.686;8.684;2023-08-17T08:31:31;7.85;;;5.42;;
29422;SDS011;16399;51.686;8.684;2023-08-17T08:34:33;10.10;;;5.90;;
29422;SDS011;16399;51.686;8.684;2023-08-17T08:37:35;11.25;;;5.50;;
29422;SDS011;16399;51.686;8.684;2023-08-17T08:40:38;9.38;;;5.72;;
29422;SDS011;16399;51.686;8.684;2023-08-17T08:43:42;10.72;;;5.72;;
29422;SDS011;16399;51.686;8.684;2023-08-17T08:46:45;10.95;;;5.83;;
29422;SDS011;16399;51.686;8.684;2023-08-17T08:49:56;10.58;;;6.30;;
29422;SDS011;16399;51.686;8.684;2023-08-17T08:53:03;14.33;;;5.78;;
29422;SDS011;16399;51.686;8.684;2023-08-17T08:56:07;11.38;;;5.60;;
29422;SDS011;16399;51.686;8.684;2023-08-17T08:59:13;10.93;;;6.60;;
29422;SDS011;16399;51.686;8.684;2023-08-17T09:02:15;7.97;;;5.20;;
29422;SDS011;16399;51.686;8.684;2023-08-17T09:05:18;7.08;;;4.75;;
29422;SDS011;16399;51.686;8.684;2023-08-17T09:08:22;8.05;;;4.85;;
29422;SDS011;16399;51.686;8.684;2023-08-17T09:11:26;8.48;;;4.80;;
29422;SDS011;16399;51.686;8.684;2023-08-17T09:14:28;10.30;;;5.37;;
29422;SDS011;16399;51.686;8.684;2023-08-17T09:17:32;7.12;;;4.83;;
29422;SDS011;16399;51.686;8.684;2023-08-17T09:20:38;7.45;;;5.15;;
29422;SDS011;16399;51.686;8.684;2023-08-17T09:23:42;9.03;;;4.90;;
29422;SDS011;16399;51.686;8.684;2023-08-17T09:26:44;8.25;;;4.90;;
29422;SDS011;16399;51.686;8.684;2023-08-17T09:29:46;8.85;;;5.35;;
29422;SDS011;16399;51.686;8.684;2023-08-17T09:32:49;7.92;;;5.60;;
29422;SDS011;16399;51.686;8.684;2023-08-17T09:35:51;8.53;;;6.00;;
29422;SDS011;16399;51.686;8.684;2023-08-17T09:38:54;9.28;;;6.35;;
29422;SDS011;16399;51.686;8.684;2023-08-17T09:41:57;9.23;;;6.45;;
29422;SDS011;16399;51.686;8.684;2023-08-17T09:45:01;13.07;;;5.97;;
29422;SDS011;16399;51.686;8.684;2023-08-17T09:48:05;10.08;;;6.15;;
29422;SDS011;16399;51.686;8.684;2023-08-17T09:51:08;11.00;;;6.72;;
29422;SDS011;16399;51.686;8.684;2023-08-17T09:54:20;9.15;;;6.40;;
29422;SDS011;16399;51.686;8.684;2023-08-17T09:57:23;10.15;;;6.65;;
29422;SDS011;16399;51.686;8.684;2023-08-17T10:00:27;12.63;;;6.50;;
29422;SDS011;16399;51.686;8.684;2023-08-17T10:03:29;10.38;;;6.75;;
29422;SDS011;16399;51.686;8.684;2023-08-17T10:06:35;10.40;;;6.55;;
29422;SDS011;16399;51.686;8.684;2023-08-17T10:09:42;10.35;;;5.65;;
29422;SDS011;16399;51.686;8.684;2023-08-17T10:12:49;9.68;;;6.08;;
29422;SDS011;16399;51.686;8.684;2023-08-17T10:19:21;8.85;;;5.97;;
29422;SDS011;16399;51.686;8.684;2023-08-17T10:22:26;8.60;;;5.28;;
29422;SDS011;16399;51.686;8.684;2023-08-17T10:25:34;8.35;;;6.05;;
29422;SDS011;16399;51.686;8.684;2023-08-17T10:28:38;8.55;;;5.83;;
29422;SDS011;16399;51.686;8.684;2023-08-17T10:31:43;9.90;;;5.75;;
29422;SDS011;16399;51.686;8.684;2023-08-17T10:34:50;12.80;;;7.20;;
29422;SDS011;16399;51.686;8.684;2023-08-17T10:37:53;11.12;;;7.00;;
29422;SDS011;16399;51.686;8.684;2023-08-17T10:41:11;10.55;;;7.70;;
29422;SDS011;16399;51.686;8.684;2023-08-17T10:44:16;11.38;;;7.22;;
29422;SDS011;16399;51.686;8.684;2023-08-17T10:47:36;16.67;;;9.55;;
29422;SDS011;16399;51.686;8.684;2023-08-17T10:50:38;12.63;;;7.90;;
29422;SDS011;16399;51.686;8.684;2023-08-17T10:53:42;13.58;;;9.63;;
29422;SDS011;16399;51.686;8.684;2023-08-17T10:56:45;12.30;;;8.58;;
29422;SDS011;16399;51.686;8.684;2023-08-17T11:00:04;11.80;;;8.48;;
29422;SDS011;16399;51.686;8.684;2023-08-17T11:03:09;12.45;;;8.78;;
29422;SDS011;16399;51.686;8.684;2023-08-17T11:06:15;14.05;;;8.30;;
29422;SDS011;16399;51.686;8.684;2023-08-17T11:09:21;11.33;;;7.53;;
29422;SDS011;16399;51.686;8.684;2023-08-17T11:12:26;13.75;;;8.80;;
29422;SDS011;16399;51.686;8.684;2023-08-17T11:15:34;12.75;;;7.35;;
29422;SDS011;16399;51.686;8.684;2023-08-17T11:18:42;14.20;;;8.85;;
29422;SDS011;16399;51.686;8.684;2023-08-17T11:21:45;9.65;;;7.45;;
29422;SDS011;16399;51.686;8.684;2023-08-17T11:24:48;11.28;;;8.45;;
29422;SDS011;16399;51.686;8.684;2023-08-17T11:27:50;12.50;;;8.40;;
29422;SDS011;16399;51.686;8.684;2023-08-17T11:31:01;9.23;;;7.37;;
29422;SDS011;16399;51.686;8.684;2023-08-17T11:34:00;10.20;;;6.95;;
29422;SDS011;16399;51.686;8.684;2023-08-17T11:37:03;8.90;;;6.40;;
29422;SDS011;16399;51.686;8.684;2023-08-17T11:40:06;11.95;;;6.72;;
29422;SDS011;16399;51.686;8.684;2023-08-17T11:43:10;11.10;;;7.03;;
29422;SDS011;16399;51.686;8.684;2023-08-17T11:46:12;8.80;;;6.72;;
29422;SDS011;16399;51.686;8.684;2023-08-17T11:49:16;10.10;;;7.22;;
29422;SDS011;16399;51.686;8.684;2023-08-17T11:52:19;9.40;;;7.10;;
29422;SDS011;16399;51.686;8.684;2023-08-17T11:55:21;8.90;;;6.67;;
29422;SDS011;16399;51.686;8.684;2023-08-17T11:58:36;10.63;;;7.95;;
29422;SDS011;16399;51.686;8.684;2023-08-17T12:01:44;11.60;;;7.83;;
29422;SDS011;16399;51.686;8.684;2023-08-17T12:04:47;11.43;;;7.67;;
29422;SDS011;16399;51.686;8.684;2023-08-17T12:07:50;9.90;;;7.20;;
29422;SDS011;16399;51.686;8.684;2023-08-17T12:10:53;10.93;;;7.28;;
29422;SDS011;16399;51.686;8.684;2023-08-17T12:13:56;10.05;;;6.55;;
29422;SDS011;16399;51.686;8.684;2023-08-17T12:16:59;9.60;;;6.72;;
29422;SDS011;16399;51.686;8.684;2023-08-17T12:20:01;8.83;;;5.15;;
29422;SDS011;16399;51.686;8.684;2023-08-17T12:23:04;9.40;;;6.87;;
29422;SDS011;16399;51.686;8.684;2023-08-17T12:26:07;9.33;;;6.70;;
29422;SDS011;16399;51.686;8.684;2023-08-17T12:29:09;9.08;;;6.25;;
29422;SDS011;16399;51.686;8.684;2023-08-17T12:32:13;10.45;;;6.95;;
29422;SDS011;16399;51.686;8.684;2023-08-17T12:35:17;11.33;;;8.13;;
29422;SDS011;16399;51.686;8.684;2023-08-17T12:38:21;9.28;;;7.45;;
29422;SDS011;16399;51.686;8.684;2023-08-17T12:41:25;13.35;;;8.75;;
29422;SDS011;16399;51.686;8.684;2023-08-17T12:44:28;11.57;;;8.95;;
29422;SDS011;16399;51.686;8.684;2023-08-17T12:47:30;10.98;;;8.25;;
29422;SDS011;16399;51.686;8.684;2023-08-17T12:50:32;10.35;;;7.25;;
29422;SDS011;16399;51.686;8.684;2023-08-17T12:53:35;13.88;;;7.65;;
29422;SDS011;16399;51.686;8.684;2023-08-17T12:56:37;9.98;;;7.15;;
29422;SDS011;16399;51.686;8.684;2023-08-17T12:59:39;9.30;;;7.10;;
29422;SDS011;16399;51.686;8.684;2023-08-17T13:02:41;9.40;;;6.92;;
29422;SDS011;16399;51.686;8.684;2023-08-17T13:05:45;8.10;;;6.33;;
29422;SDS011;16399;51.686;8.684;2023-08-17T13:08:48;10.00;;;6.53;;
29422;SDS011;16399;51.686;8.684;2023-08-17T13:11:50;9.08;;;7.28;;
29422;SDS011;16399;51.686;8.684;2023-08-17T13:14:52;9.90;;;7.75;;
29422;SDS011;16399;51.686;8.684;2023-08-17T13:17:55;9.48;;;7.17;;
29422;SDS011;16399;51.686;8.684;2023-08-17T13:20:57;9.95;;;7.37;;
29422;SDS011;16399;51.686;8.684;2023-08-17T13:24:20;8.40;;;5.60;;
29422;SDS011;16399;51.686;8.684;2023-08-17T13:27:22;7.58;;;4.47;;
29422;SDS011;16399;51.686;8.684;2023-08-17T13:30:24;8.15;;;4.80;;
29422;SDS011;16399;51.686;8.684;2023-08-17T13:33:27;6.55;;;4.37;;
29422;SDS011;16399;51.686;8.684;2023-08-17T13:36:29;8.90;;;5.28;;
29422;SDS011;16399;51.686;8.684;2023-08-17T13:39:31;9.20;;;6.15;;
29422;SDS011;16399;51.686;8.684;2023-08-17T13:42:34;7.72;;;5.10;;
29422;SDS011;16399;51.686;8.684;2023-08-17T13:45:38;7.10;;;4.95;;
29422;SDS011;16399;51.686;8.684;2023-08-17T13:48:43;9.40;;;4.90;;
29422;SDS011;16399;51.686;8.684;2023-08-17T13:51:45;8.20;;;4.83;;
29422;SDS011;16399;51.686;8.684;2023-08-17T13:54:48;8.20;;;4.97;;
29422;SDS011;16399;51.686;8.684;2023-08-17T13:57:51;6.58;;;4.50;;
29422;SDS011;16399;51.686;8.684;2023-08-17T14:00:56;6.50;;;3.92;;
29422;SDS011;16399;51.686;8.684;2023-08-17T14:03:59;4.42;;;3.00;;
29422;SDS011;16399;51.686;8.684;2023-08-17T14:07:04;4.83;;;2.98;;
29422;SDS011;16399;51.686;8.684;2023-08-17T14:10:06;4.60;;;3.12;;
29422;SDS011;16399;51.686;8.684;2023-08-17T14:13:09;5.25;;;3.20;;
29422;SDS011;16399;51.686;8.684;2023-08-17T14:16:11;5.20;;;3.12;;
29422;SDS011;16399;51.686;8.684;2023-08-17T14:19:13;5.12;;;3.15;;
29422;SDS011;16399;51.686;8.684;2023-08-17T14:22:16;3.77;;;2.42;;
29422;SDS011;16399;51.686;8.684;2023-08-17T14:25:18;4.20;;;2.70;;
29422;SDS011;16399;51.686;8.684;2023-08-17T14:28:20;4.47;;;2.58;;
29422;SDS011;16399;51.686;8.684;2023-08-17T14:31:22;3.80;;;2.40;;
29422;SDS011;16399;51.686;8.684;2023-08-17T14:34:25;5.85;;;3.20;;
29422;SDS011;16399;51.686;8.684;2023-08-17T14:37:27;4.22;;;2.60;;
29422;SDS011;16399;51.686;8.684;2023-08-17T14:40:29;5.87;;;3.12;;
29422;SDS011;16399;51.686;8.684;2023-08-17T14:43:31;4.40;;;2.70;;
29422;SDS011;16399;51.686;8.684;2023-08-17T14:46:34;7.55;;;3.75;;
29422;SDS011;16399;51.686;8.684;2023-08-17T14:52:40;3.65;;;2.22;;
29422;SDS011;16399;51.686;8.684;2023-08-17T14:55:42;3.92;;;2.10;;
29422;SDS011;16399;51.686;8.684;2023-08-17T14:58:45;3.58;;;1.98;;
29422;SDS011;16399;51.686;8.684;2023-08-17T15:01:47;3.52;;;1.90;;
29422;SDS011;16399;51.686;8.684;2023-08-17T15:04:51;3.70;;;1.93;;
29422;SDS011;16399;51.686;8.684;2023-08-17T15:07:55;3.20;;;1.82;;
29422;SDS011;16399;51.686;8.684;2023-08-17T15:10:57;3.65;;;2.00;;
29422;SDS011;16399;51.686;8.684;2023-08-17T15:14:01;4.92;;;2.27;;
29422;SDS011;16399;51.686;8.684;2023-08-17T15:17:04;3.52;;;1.80;;
29422;SDS011;16399;51.686;8.684;2023-08-17T15:20:06;3.87;;;1.87;;
29422;SDS011;16399;51.686;8.684;2023-08-17T15:23:11;3.62;;;1.87;;
29422;SDS011;16399;51.686;8.684;2023-08-17T15:26:13;3.50;;;2.10;;
29422;SDS011;16399;51.686;8.684;2023-08-17T15:29:15;3.00;;;1.80;;
29422;SDS011;16399;51.686;8.684;2023-08-17T15:32:17;4.55;;;2.10;;
29422;SDS011;16399;51.686;8.684;2023-08-17T15:35:20;5.62;;;2.05;;
29422;SDS011;16399;51.686;8.684;2023-08-17T15:38:22;2.95;;;1.80;;
29422;SDS011;16399;51.686;8.684;2023-08-17T15:41:25;3.98;;;2.50;;
29422;SDS011;16399;51.686;8.684;2023-08-17T15:44:28;4.47;;;2.52;;
29422;SDS011;16399;51.686;8.684;2023-08-17T15:47:32;4.75;;;2.83;;
29422;SDS011;16399;51.686;8.684;2023-08-17T15:50:35;6.53;;;3.50;;
29422;SDS011;16399;51.686;8.684;2023-08-17T15:53:37;4.78;;;3.22;;
29422;SDS011;16399;51.686;8.684;2023-08-17T15:56:41;5.15;;;3.83;;
29422;SDS011;16399;51.686;8.684;2023-08-17T15:59:43;4.67;;;2.85;;
29422;SDS011;16399;51.686;8.684;2023-08-17T16:02:47;4.95;;;3.17;;
29422;SDS011;16399;51.686;8.684;2023-08-17T16:05:49;4.70;;;3.33;;
29422;SDS011;16399;51.686;8.684;2023-08-17T16:08:52;5.72;;;3.60;;
29422;SDS011;16399;51.686;8.684;2023-08-17T16:11:54;6.33;;;4.12;;
29422;SDS011;16399;51.686;8.684;2023-08-17T16:14:57;5.60;;;3.83;;
29422;SDS011;16399;51.686;8.684;2023-08-17T16:17:59;7.17;;;4.28;;
29422;SDS011;16399;51.686;8.684;2023-08-17T16:21:01;7.60;;;4.50;;
29422;SDS011;16399;51.686;8.684;2023-08-17T16:24:04;7.30;;;3.98;;
29422;SDS011;16399;51.686;8.684;2023-08-17T16:27:06;8.18;;;4.37;;
29422;SDS011;16399;51.686;8.684;2023-08-17T16:30:08;7.17;;;4.10;;
29422;SDS011;16399;51.686;8.684;2023-08-17T16:33:11;6.80;;;3.60;;
29422;SDS011;16399;51.686;8.684;2023-08-17T16:36:13;6.95;;;3.98;;
29422;SDS011;16399;51.686;8.684;2023-08-17T16:39:16;8.85;;;4.80;;
29422;SDS011;16399;51.686;8.684;2023-08-17T16:42:18;6.60;;;4.53;;
29422;SDS011;16399;51.686;8.684;2023-08-17T16:45:20;7.10;;;4.40;;
29422;SDS011;16399;51.686;8.684;2023-08-17T16:48:22;9.55;;;4.30;;
29422;SDS011;16399;51.686;8.684;2023-08-17T16:51:25;8.28;;;4.87;;
29422;SDS011;16399;51.686;8.684;2023-08-17T16:54:27;9.68;;;4.37;;
29422;SDS011;16399;51.686;8.684;2023-08-17T16:57:29;6.22;;;4.03;;
29422;SDS011;16399;51.686;8.684;2023-08-17T17:00:32;8.60;;;4.78;;
29422;SDS011;16399;51.686;8.684;2023-08-17T17:03:35;7.35;;;4.67;;
29422;SDS011;16399;51.686;8.684;2023-08-17T17:06:37;7.95;;;4.80;;
29422;SDS011;16399;51.686;8.684;2023-08-17T17:09:39;7.17;;;4.50;;
29422;SDS011;16399;51.686;8.684;2023-08-17T17:12:41;9.75;;;5.12;;
29422;SDS011;16399;51.686;8.684;2023-08-17T17:15:44;6.28;;;4.17;;
29422;SDS011;16399;51.686;8.684;2023-08-17T17:18:46;7.58;;;4.70;;
29422;SDS011;16399;51.686;8.684;2023-08-17T17:21:49;8.53;;;4.75;;
29422;SDS011;16399;51.686;8.684;2023-08-17T17:24:51;6.08;;;4.20;;
29422;SDS011;16399;51.686;8.684;2023-08-17T17:27:53;7.20;;;4.15;;
29422;SDS011;16399;51.686;8.684;2023-08-17T17:30:55;5.70;;;4.10;;
29422;SDS011;16399;51.686;8.684;2023-08-17T17:33:58;7.97;;;4.33;;
29422;SDS011;16399;51.686;8.684;2023-08-17T17:37:00;7.35;;;4.40;;
29422;SDS011;16399;51.686;8.684;2023-08-17T17:40:04;7.53;;;4.00;;
29422;SDS011;16399;51.686;8.684;2023-08-17T17:43:06;6.75;;;4.12;;
29422;SDS011;16399;51.686;8.684;2023-08-17T17:46:09;7.50;;;4.22;;
29422;SDS011;16399;51.686;8.684;2023-08-17T17:49:11;7.78;;;4.10;;
29422;SDS011;16399;51.686;8.684;2023-08-17T17:52:13;7.87;;;4.05;;
29422;SDS011;16399;51.686;8.684;2023-08-17T17:55:16;6.78;;;4.12;;
29422;SDS011;16399;51.686;8.684;2023-08-17T17:58:18;6.30;;;4.40;;
29422;SDS011;16399;51.686;8.684;2023-08-17T18:01:20;6.40;;;4.55;;
29422;SDS011;16399;51.686;8.684;2023-08-17T18:04:23;6.75;;;4.28;;
29422;SDS011;16399;51.686;8.684;2023-08-17T18:07:25;6.40;;;4.15;;
29422;SDS011;16399;51.686;8.684;2023-08-17T18:10:28;8.95;;;4.28;;
29422;SDS011;16399;51.686;8.684;2023-08-17T18:13:30;7.20;;;4.45;;
29422;SDS011;16399;51.686;8.684;2023-08-17T18:16:32;6.03;;;4.37;;
29422;SDS011;16399;51.686;8.684;2023-08-17T18:19:34;7.00;;;5.20;;
29422;SDS011;16399;51.686;8.684;2023-08-17T18:22:37;8.33;;;5.25;;
29422;SDS011;16399;51.686;8.684;2023-08-17T18:25:39;8.85;;;5.58;;
29422;SDS011;16399;51.686;8.684;2023-08-17T18:28:43;7.97;;;5.33;;
29422;SDS011;16399;51.686;8.684;2023-08-17T18:31:46;8.68;;;5.83;;
29422;SDS011;16399;51.686;8.684;2023-08-17T18:34:48;9.18;;;5.25;;